Time;durP1;ratioP1;P1;durP2;ratioP2;P2;SDS_P1;SDS_P2;PMS_P1;PMS_P2;Temp;Humidity;BMP_temperature;BMP_pressure;BME280_temperature;BME280_humidity;BME280_pressure;Samples;Min_cycle;Max_cycle;Signal;HPM_P1;HPM_P2
2022/11/06 00:00:28;;;;;;;20.65;7.38;;;;;;;8.17;100.00;101291.91;5043983;28;20061;-70
2022/11/06 00:02:57;;;;;;;23.08;10.50;;;;;;;8.14;100.00;101298.00;5045262;28;20037;-71
2022/11/06 00:08:06;;;;;;;22.17;7.93;;;;;;;8.08;100.00;101312.75;5039125;28;20104;-70
2022/11/06 00:10:31;;;;;;;23.42;7.80;;;;;;;8.00;100.00;101299.44;5046578;28;20025;-71
2022/11/06 00:12:56;;;;;;;19.30;7.10;;;;;;;7.94;100.00;101304.56;5043882;28;20537;-71
2022/11/06 00:15:22;;;;;;;20.58;7.50;;;;;;;7.95;100.00;101301.97;5044673;28;20164;-71
2022/11/06 00:17:49;;;;;;;20.67;6.80;;;;;;;7.92;100.00;101303.63;5045000;28;20021;-71
2022/11/06 00:20:14;;;;;;;21.67;7.05;;;;;;;7.96;100.00;101297.56;5042473;28;20457;-70
2022/11/06 00:22:39;;;;;;;20.73;6.82;;;;;;;7.89;100.00;101301.81;5045724;28;20025;-70
2022/11/06 00:25:06;;;;;;;20.13;6.70;;;;;;;7.92;100.00;101294.00;5042814;28;20021;-70
2022/11/06 00:27:34;;;;;;;21.35;6.85;;;;;;;7.85;100.00;101299.97;5045903;28;20059;-71
2022/11/06 00:29:59;;;;;;;19.35;6.60;;;;;;;7.91;100.00;101296.59;5043077;28;20021;-70
2022/11/06 00:32:24;;;;;;;20.85;6.53;;;;;;;7.83;100.00;101296.41;5044929;28;20530;-69
2022/11/06 00:34:50;;;;;;;20.63;6.88;;;;;;;7.86;100.00;101285.94;5044482;28;20025;-71
2022/11/06 00:37:15;;;;;;;22.23;6.70;;;;;;;7.75;100.00;101293.59;5043089;28;20417;-71
2022/11/06 00:39:40;;;;;;;20.95;6.35;;;;;;;7.73;100.00;101274.25;5045935;28;20029;-71
2022/11/06 00:42:05;;;;;;;19.50;6.65;;;;;;;7.73;100.00;101268.09;5042440;28;20461;-65
2022/11/06 00:44:31;;;;;;;20.35;6.70;;;;;;;7.64;100.00;101264.41;5045382;28;20045;-65
2022/11/06 00:46:56;;;;;;;20.58;6.72;;;;;;;7.72;100.00;101263.69;5043377;28;20028;-65
2022/11/06 00:49:21;;;;;;;19.60;6.35;;;;;;;7.71;100.00;101269.81;5044135;28;20040;-65
2022/11/06 00:51:47;;;;;;;22.50;6.55;;;;;;;7.69;100.00;101267.16;5044400;28;20476;-65
2022/11/06 00:54:13;;;;;;;20.45;6.20;;;;;;;7.68;100.00;101276.78;5042744;28;20061;-65
2022/11/06 00:56:38;;;;;;;21.85;6.65;;;;;;;7.71;100.00;101269.81;5045456;28;20388;-65
2022/11/06 00:59:06;;;;;;;19.00;6.60;;;;;;;7.69;100.00;101280.31;5038257;28;20534;-65
2022/11/06 01:01:34;;;;;;;22.75;6.90;;;;;;;7.63;100.00;101283.69;5044914;28;20028;-65
2022/11/06 01:04:12;;;;;;;20.48;6.60;;;;;;;7.64;100.00;101282.81;5042302;28;20066;-64
2022/11/06 01:06:40;;;;;;;20.67;6.15;;;;;;;7.70;100.00;101282.06;5044881;28;20484;-65
2022/11/06 01:09:07;;;;;;;20.27;6.07;;;;;;;7.64;100.00;101277.53;5038342;28;20029;-65
2022/11/06 01:11:35;;;;;;;21.38;6.15;;;;;;;7.58;100.00;101263.38;5044993;28;20424;-65
2022/11/06 01:14:02;;;;;;;20.23;5.90;;;;;;;7.57;100.00;101273.03;5042073;28;20025;-65
2022/11/06 01:16:28;;;;;;;21.30;6.25;;;;;;;7.55;100.00;101269.44;5044688;28;20026;-65
2022/11/06 01:18:55;;;;;;;18.83;5.80;;;;;;;7.57;100.00;101269.47;5042859;28;20508;-65
2022/11/06 01:21:26;;;;;;;21.27;6.10;;;;;;;7.54;100.00;101272.94;5043095;28;20083;-65
2022/11/06 01:23:54;;;;;;;20.27;5.90;;;;;;;7.50;100.00;101256.19;5043310;28;20033;-65
2022/11/06 01:26:19;;;;;;;22.55;6.50;;;;;;;7.53;100.00;101249.22;5042910;28;20160;-65
2022/11/06 01:28:45;;;;;;;20.27;5.93;;;;;;;7.58;100.00;101256.38;5043821;28;20104;-65
2022/11/06 01:31:16;;;;;;;21.67;6.25;;;;;;;7.63;100.00;101254.75;5041521;28;20033;-69
2022/11/06 01:33:42;;;;;;;19.10;5.90;;;;;;;7.63;100.00;101260.00;5044644;28;20056;-70
2022/11/06 01:36:09;;;;;;;20.30;5.75;;;;;;;7.63;100.00;101252.13;5041465;28;20021;-70
2022/11/06 01:38:35;;;;;;;20.23;5.70;;;;;;;7.65;100.00;101236.34;5037431;28;20029;-65
2022/11/06 01:41:00;;;;;;;23.30;5.63;;;;;;;7.66;100.00;101244.28;5044390;28;20059;-71
2022/11/06 01:43:47;;;;;;;19.55;5.63;;;;;;;7.79;100.00;101234.00;5041222;28;20029;-70
2022/11/06 01:46:13;;;;;;;17.95;5.28;;;;;;;7.77;100.00;101230.47;5038629;28;20022;-71
2022/11/06 01:48:42;;;;;;;17.63;5.53;;;;;;;7.82;100.00;101224.47;5043307;28;20495;-71
2022/11/06 01:51:08;;;;;;;19.77;5.30;;;;;;;7.86;100.00;101235.94;5037771;28;20108;-71
2022/11/06 01:53:34;;;;;;;19.20;5.30;;;;;;;7.92;100.00;101232.53;5042976;28;20478;-70
2022/11/06 01:56:03;;;;;;;19.48;5.40;;;;;;;7.97;100.00;101230.91;5041753;28;20477;-70
2022/11/06 01:58:32;;;;;;;18.02;5.03;;;;;;;8.02;100.00;101230.16;5044088;28;20130;-71
2022/11/06 02:00:58;;;;;;;19.02;5.20;;;;;;;7.98;100.00;101233.56;5042208;28;20021;-71
2022/11/06 02:03:24;;;;;;;18.83;4.80;;;;;;;8.03;100.00;101228.41;5042678;28;20500;-71
2022/11/06 02:05:50;;;;;;;20.20;5.43;;;;;;;8.04;100.00;101232.81;5043265;28;20024;-70
2022/11/06 02:08:18;;;;;;;18.63;5.18;;;;;;;8.02;100.00;101230.16;5041406;28;20512;-71
2022/11/06 02:10:44;;;;;;;21.15;5.05;;;;;;;8.05;100.00;101228.44;5043631;28;20108;-71
2022/11/06 02:13:34;;;;;;;20.85;5.60;;;;;;;8.07;100.00;101221.44;5041015;28;20381;-71
2022/11/06 02:16:11;;;;;;;19.67;4.75;;;;;;;8.10;100.00;101222.41;5041631;28;20033;-70
2022/11/06 02:19:01;;;;;;;20.02;4.90;;;;;;;8.10;100.00;101222.41;5037488;28;20171;-71
2022/11/06 02:21:44;;;;;;;20.98;5.15;;;;;;;8.15;100.00;101214.59;5042278;28;20079;-71
2022/11/06 02:24:43;;;;;;;18.67;4.80;;;;;;;8.11;100.00;101208.38;5037488;28;20029;-70
2022/11/06 02:27:15;;;;;;;19.38;4.60;;;;;;;8.10;100.00;101203.09;5037713;28;20116;-71
2022/11/06 02:29:55;;;;;;;19.15;4.80;;;;;;;8.10;100.00;101200.47;5037838;28;20029;-71
2022/11/06 02:32:27;;;;;;;18.75;4.57;;;;;;;7.99;100.00;101208.13;5043052;28;20033;-70
2022/11/06 02:34:53;;;;;;;;;;;;;;;8.02;100.00;101203.81;5043035;28;20028;-68
2022/11/06 02:37:28;;;;;;;19.85;4.90;;;;;;;7.90;100.00;101208.81;5042718;28;19913;-71
2022/11/06 02:39:58;;;;;;;17.73;4.50;;;;;;;7.91;100.00;101202.72;5042869;28;20053;-70
2022/11/06 02:42:27;;;;;;;18.55;4.75;;;;;;;7.89;100.00;101193.88;5042435;28;20103;-70
2022/11/06 02:44:54;;;;;;;20.10;4.85;;;;;;;7.80;100.00;101185.78;5046525;28;20033;-69
2022/11/06 02:47:23;;;;;;;17.45;4.82;;;;;;;7.93;100.00;101186.94;5046303;28;20029;-68
2022/11/06 02:50:05;;;;;;;20.80;4.90;;;;;;;7.94;100.00;101184.34;5045756;28;20025;-71
2022/11/06 02:52:37;;;;;;;20.40;4.60;;;;;;;7.95;100.00;101186.13;5045057;28;20021;-71
2022/11/06 02:55:16;;;;;;;19.02;4.57;;;;;;;7.91;100.00;101197.44;5047510;28;20025;-70
2022/11/06 02:57:51;;;;;;;20.60;4.85;;;;;;;7.92;100.00;101191.34;5041518;28;20033;-71
2022/11/06 03:00:17;;;;;;;18.55;5.03;;;;;;;7.89;100.00;101195.63;5046826;28;20140;-71
2022/11/06 03:02:55;;;;;;;16.58;4.43;;;;;;;7.85;100.00;101194.69;5044742;28;20108;-71
2022/11/06 03:05:35;;;;;;;19.88;4.93;;;;;;;7.99;100.00;101202.84;5046342;28;20021;-71
2022/11/06 03:08:15;;;;;;;18.02;4.70;;;;;;;8.00;100.00;101200.25;5046696;28;20462;-70
2022/11/06 03:10:49;;;;;;;17.17;4.70;;;;;;;8.00;100.00;101202.88;5040598;28;20451;-71
2022/11/06 03:13:23;;;;;;;20.45;4.57;;;;;;;8.03;100.00;101218.75;5046954;28;20391;-70
2022/11/06 03:16:04;;;;;;;18.48;4.50;;;;;;;8.09;100.00;101210.09;5044994;28;20466;-71
2022/11/06 03:18:52;;;;;;;17.63;4.50;;;;;;;8.12;100.00;101190.84;5045139;28;20021;-71
2022/11/06 03:21:29;;;;;;;18.70;4.60;;;;;;;8.11;100.00;101192.59;5040424;28;20034;-71
2022/11/06 03:24:01;;;;;;;19.88;4.60;;;;;;;8.08;100.00;101191.63;5043150;28;20127;-70
2022/11/06 03:26:34;;;;;;;19.20;4.88;;;;;;;8.07;100.00;101176.66;5043973;28;20056;-70
2022/11/06 03:29:18;;;;;;;19.70;4.72;;;;;;;8.00;100.00;101159.88;5042144;28;20080;-71
2022/11/06 03:32:16;;;;;;;16.95;4.65;;;;;;;7.97;100.00;101168.59;5039181;28;20065;-65
2022/11/06 03:35:25;;;;;;;18.58;4.85;;;;;;;7.96;100.00;101156.28;5041014;28;20029;-65
2022/11/06 03:37:58;;;;;;;17.73;4.57;;;;;;;7.78;100.00;101162.06;5040657;28;20026;-65
2022/11/06 03:40:25;;;;;;;;;;;;;;;7.83;100.00;101156.91;5043615;28;20029;-65
2022/11/06 03:42:56;;;;;;;20.50;4.90;;;;;;;7.78;100.00;101151.53;5042545;28;20407;-65
2022/11/06 03:45:25;;;;;;;18.77;4.60;;;;;;;7.77;100.00;101154.16;5043029;28;20508;-65
2022/11/06 03:47:54;;;;;;;18.42;4.43;;;;;;;7.81;100.00;101145.47;5042447;28;20031;-65
2022/11/06 03:50:23;;;;;;;18.98;4.90;;;;;;;7.93;100.00;101144.81;5043431;28;20032;-65
2022/11/06 03:52:55;;;;;;;17.20;4.50;;;;;;;7.97;100.00;101137.00;5042140;28;20048;-65
2022/11/06 03:55:37;;;;;;;18.27;4.70;;;;;;;8.04;100.00;101130.13;5042793;28;20514;-65
2022/11/06 03:58:07;;;;;;;17.95;4.63;;;;;;;8.07;100.00;101124.91;5044848;28;20079;-65
2022/11/06 04:00:35;;;;;;;18.75;4.40;;;;;;;8.09;100.00;101128.47;5043634;28;20045;-65
2022/11/06 04:03:06;;;;;;;19.40;4.43;;;;;;;8.02;100.00;101124.84;5045749;28;20082;-65
2022/11/06 04:05:38;;;;;;;18.02;4.40;;;;;;;8.05;100.00;101123.09;5043595;28;20025;-65
2022/11/06 04:13:57;;;;;;;18.88;4.70;;;;;;;8.07;100.00;101114.38;5039041;28;20045;-65
2022/11/06 04:16:25;;;;;;;17.38;4.50;;;;;;;8.05;100.00;101125.75;5042957;28;20151;-64
2022/11/06 04:18:51;;;;;;;19.48;4.63;;;;;;;8.12;100.00;101115.34;5045063;28;20025;-65
2022/11/06 04:21:21;;;;;;;18.42;4.60;;;;;;;8.15;100.00;101106.63;5043531;28;20484;-70
2022/11/06 04:27:15;;;;;;;18.65;4.93;;;;;;;8.10;100.00;101095.13;5041686;28;20111;-70
2022/11/06 04:29:52;;;;;;;19.63;4.82;;;;;;;8.01;100.00;101091.47;5020642;28;20552;-71
2022/11/06 04:32:40;;;;;;;17.00;4.60;;;;;;;7.97;100.00;101084.34;5022901;28;20033;-70
2022/11/06 04:35:16;;;;;;;19.73;4.85;;;;;;;7.98;100.00;101095.75;5016483;28;20038;-69
2022/11/06 04:38:03;;;;;;;18.88;4.70;;;;;;;7.94;100.00;101088.69;5020650;28;20034;-71
2022/11/06 04:41:01;;;;;;;21.27;4.80;;;;;;;7.90;100.00;101086.84;5021341;28;20046;-70
2022/11/06 04:43:44;;;;;;;18.17;4.95;;;;;;;7.86;100.00;101085.88;5022688;28;20040;-71
2022/11/06 04:46:14;;;;;;;17.55;4.47;;;;;;;7.90;100.00;101081.59;5020448;28;20033;-70
2022/11/06 04:48:40;;;;;;;17.50;4.70;;;;;;;7.87;100.00;101082.41;5020271;28;20489;-71
2022/11/06 04:51:09;;;;;;;18.13;4.70;;;;;;;7.83;100.00;101075.31;5023584;28;20056;-68
2022/11/06 04:53:36;;;;;;;19.77;5.25;;;;;;;7.83;100.00;101081.47;5020269;28;20038;-70
2022/11/06 04:56:12;;;;;;;20.48;5.32;;;;;;;7.87;100.00;101081.53;5022953;28;20541;-71
2022/11/06 04:58:37;;;;;;;18.88;5.00;;;;;;;7.90;100.00;101077.19;5020052;28;20164;-69
2022/11/06 05:01:03;;;;;;;19.13;5.13;;;;;;;7.88;100.00;101073.66;5023211;28;20539;-70
2022/11/06 05:03:29;;;;;;;17.55;4.75;;;;;;;7.89;100.00;101067.53;5020793;28;20508;-71
2022/11/06 05:05:54;;;;;;;17.60;4.72;;;;;;;7.88;100.00;101071.03;5023171;28;20037;-70
2022/11/06 05:08:20;;;;;;;18.10;5.20;;;;;;;7.89;100.00;101059.63;5044062;28;20064;-70
2022/11/06 05:10:46;;;;;;;19.00;4.72;;;;;;;7.90;100.00;101058.78;5042220;28;20053;-71
2022/11/06 05:13:12;;;;;;;17.30;5.03;;;;;;;7.92;100.00;101067.59;5045203;28;20071;-70
2022/11/06 05:15:37;;;;;;;17.95;4.70;;;;;;;7.94;100.00;101062.38;5041821;28;20460;-70
2022/11/06 05:18:03;;;;;;;17.92;4.82;;;;;;;7.90;100.00;101048.25;5044620;28;20033;-71
2022/11/06 05:20:28;;;;;;;20.75;4.90;;;;;;;7.81;100.00;101040.19;5042679;28;20059;-70
2022/11/06 05:22:57;;;;;;;18.40;5.25;;;;;;;7.74;100.00;101048.81;5043280;28;20478;-69
2022/11/06 05:25:23;;;;;;;20.30;5.13;;;;;;;7.62;100.00;101052.97;5043474;28;20063;-69
2022/11/06 05:27:49;;;;;;;18.88;4.85;;;;;;;7.62;100.00;101058.25;5042610;28;20029;-70
2022/11/06 05:30:14;;;;;;;15.43;4.35;;;;;;;7.64;100.00;101051.25;5044982;28;20040;-70
2022/11/06 05:32:40;;;;;;;20.90;5.38;;;;;;;7.63;100.00;101051.22;5041529;28;20025;-70
2022/11/06 05:35:05;;;;;;;20.17;5.40;;;;;;;7.66;100.00;101046.94;5044575;28;20029;-67
2022/11/06 05:37:31;;;;;;;20.13;5.25;;;;;;;7.60;100.00;101046.81;5042192;28;20056;-65
2022/11/06 05:39:56;;;;;;;17.55;5.10;;;;;;;7.64;100.00;101042.47;5043431;28;20037;-65
2022/11/06 05:42:21;;;;;;;18.25;4.93;;;;;;;7.70;100.00;101039.09;5043425;28;20021;-65
2022/11/06 05:44:47;;;;;;;16.58;4.78;;;;;;;7.63;100.00;101038.97;5042230;28;20029;-65
2022/11/06 05:47:12;;;;;;;19.10;5.20;;;;;;;7.65;100.00;101037.25;5044718;28;20032;-65
2022/11/06 05:49:37;;;;;;;17.80;5.10;;;;;;;7.70;100.00;101046.97;5041326;28;20476;-65
2022/11/06 05:52:03;;;;;;;16.90;4.80;;;;;;;7.73;100.00;101036.50;5043855;28;20021;-65
2022/11/06 05:54:28;;;;;;;17.20;4.68;;;;;;;7.75;100.00;101034.81;5041962;28;20479;-65
2022/11/06 05:56:53;;;;;;;17.25;4.80;;;;;;;7.78;100.00;101046.28;5042807;28;20034;-65
2022/11/06 05:59:19;;;;;;;18.20;4.78;;;;;;;7.75;100.00;101030.44;5043314;28;20029;-65
2022/11/06 06:01:44;;;;;;;17.85;4.80;;;;;;;7.75;100.00;101029.56;5041538;28;20032;-65
2022/11/06 06:04:09;;;;;;;17.92;4.60;;;;;;;7.70;100.00;101020.66;5044807;28;20017;-65
2022/11/06 06:06:36;;;;;;;17.67;4.63;;;;;;;7.75;100.00;101024.28;5040699;28;20500;-65
2022/11/06 06:09:01;;;;;;;18.85;4.85;;;;;;;7.78;100.00;101029.59;5042585;28;20465;-65
2022/11/06 06:11:26;;;;;;;18.33;4.72;;;;;;;7.79;100.00;101026.09;5041723;28;20083;-65
2022/11/06 06:13:51;;;;;;;18.02;4.63;;;;;;;7.71;100.00;101019.81;5041423;28;20029;-65
2022/11/06 06:16:17;;;;;;;17.13;4.45;;;;;;;7.76;100.00;101021.69;5043021;28;20024;-65
2022/11/06 06:18:42;;;;;;;17.13;4.55;;;;;;;7.90;100.00;101016.66;5039041;28;20381;-65
2022/11/06 06:21:07;;;;;;;18.10;4.72;;;;;;;7.91;100.00;101001.78;5043138;28;20021;-65
2022/11/06 06:23:33;;;;;;;17.05;4.80;;;;;;;7.97;100.00;101010.63;5040521;28;20025;-65
2022/11/06 06:25:58;;;;;;;16.88;4.40;;;;;;;7.94;100.00;101010.59;5042026;28;20088;-65
2022/11/06 06:28:24;;;;;;;19.08;4.32;;;;;;;8.00;100.00;101013.31;5041539;28;20025;-65
2022/11/06 06:30:49;;;;;;;16.27;4.50;;;;;;;7.98;100.00;101012.44;5040919;28;20025;-65
2022/11/06 06:33:14;;;;;;;16.92;4.20;;;;;;;7.91;100.00;101018.44;5042959;28;20031;-65
2022/11/06 06:35:39;;;;;;;15.93;4.63;;;;;;;7.89;100.00;101030.66;5039825;28;20032;-65
2022/11/06 06:38:05;;;;;;;17.45;4.38;;;;;;;7.89;100.00;101030.66;5042995;28;20021;-65
2022/11/06 06:40:30;;;;;;;18.83;4.63;;;;;;;8.00;100.00;101034.38;5040725;28;20025;-65
2022/11/06 06:42:57;;;;;;;17.45;4.80;;;;;;;7.95;100.00;101037.78;5041667;28;20388;-65
2022/11/06 06:45:23;;;;;;;17.20;4.45;;;;;;;7.95;100.00;101033.44;5041893;28;20116;-65
2022/11/06 06:47:48;;;;;;;15.77;4.30;;;;;;;7.96;100.00;101029.91;5040423;28;20034;-65
2022/11/06 06:50:14;;;;;;;18.00;4.65;;;;;;;7.94;100.00;101026.38;5043040;28;20029;-65
2022/11/06 06:52:39;;;;;;;17.52;4.60;;;;;;;7.99;100.00;101027.38;5038221;28;20038;-66
2022/11/06 06:55:05;;;;;;;15.93;4.15;;;;;;;7.94;100.00;101020.25;5042432;28;20391;-65
2022/11/06 06:57:30;;;;;;;17.25;4.45;;;;;;;7.96;100.00;101007.97;5040570;28;20032;-65
2022/11/06 06:59:55;;;;;;;16.88;4.47;;;;;;;7.97;100.00;101007.13;5041416;28;20033;-65
2022/11/06 07:02:21;;;;;;;18.42;4.75;;;;;;;8.06;100.00;101003.78;5041914;28;20464;-65
2022/11/06 07:04:46;;;;;;;17.73;4.50;;;;;;;8.13;100.00;101005.66;5040298;28;20483;-65
2022/11/06 07:07:11;;;;;;;15.85;4.07;;;;;;;8.22;100.00;101018.09;5006559;28;1053640;-65
2022/11/06 07:09:37;;;;;;;17.65;4.30;;;;;;;8.32;100.00;101015.63;5040666;28;20049;-65
2022/11/06 07:12:03;;;;;;;18.58;4.20;;;;;;;8.42;100.00;101016.66;5043107;28;20033;-70
2022/11/06 07:14:28;;;;;;;17.73;4.13;;;;;;;8.56;100.00;101011.63;5041375;28;20022;-69
2022/11/06 07:16:53;;;;;;;16.58;4.10;;;;;;;8.62;100.00;101009.09;5041911;28;20029;-69
2022/11/06 07:19:19;;;;;;;17.33;4.03;;;;;;;8.66;100.00;101003.00;5043112;28;20025;-70
2022/11/06 07:21:44;;;;;;;16.20;4.00;;;;;;;8.71;100.00;101001.31;5040590;28;20029;-71
2022/11/06 07:24:09;;;;;;;15.80;3.95;;;;;;;8.73;100.00;101007.50;5043905;28;20451;-69
2022/11/06 07:26:35;;;;;;;17.25;3.95;;;;;;;8.79;100.00;101003.19;5040576;28;20028;-70
2022/11/06 07:29:00;;;;;;;19.15;4.03;;;;;;;8.89;100.00;101002.44;5043576;28;20132;-69
2022/11/06 07:31:25;;;;;;;19.05;4.40;;;;;;;8.92;100.00;101010.41;5045738;28;20029;-71
2022/11/06 07:33:51;;;;;;;17.40;4.30;;;;;;;8.94;100.00;101003.41;5044716;28;20022;-70
2022/11/06 07:36:16;;;;;;;15.82;4.05;;;;;;;9.00;100.00;101005.22;5046627;28;20511;-71
2022/11/06 07:38:42;;;;;;;15.85;4.10;;;;;;;9.05;100.00;101014.09;5043806;28;20101;-69
2022/11/06 07:41:11;;;;;;;16.38;3.80;;;;;;;9.11;100.00;101003.63;5046774;28;20029;-70
2022/11/06 07:43:37;;;;;;;17.08;4.00;;;;;;;9.15;100.00;101009.84;5043469;28;20432;-70
2022/11/06 07:46:05;;;;;;;15.63;3.60;;;;;;;9.18;100.00;100992.28;5046330;28;20076;-70
2022/11/06 07:48:31;;;;;;;15.45;3.60;;;;;;;9.23;100.00;100987.97;5044217;28;20116;-70
2022/11/06 07:50:58;;;;;;;14.85;3.58;;;;;;;9.35;100.00;100986.31;5045206;28;20108;-68
2022/11/06 07:53:23;;;;;;;16.48;3.60;;;;;;;9.29;100.00;100987.16;5044154;28;20524;-70
2022/11/06 07:55:54;;;;;;;15.00;3.67;;;;;;;9.32;100.00;100981.00;5044039;28;20173;-68
2022/11/06 07:58:21;;;;;;;14.77;3.60;;;;;;;9.36;100.00;100994.28;5045602;28;20056;-70
2022/11/06 08:00:52;;;;;;;13.40;3.60;;;;;;;9.45;100.00;100977.66;5043627;28;20235;-69
2022/11/06 08:03:18;;;;;;;15.45;3.60;;;;;;;9.41;100.00;100978.50;5046236;28;20093;-69
2022/11/06 08:05:43;;;;;;;15.02;3.50;;;;;;;9.42;100.00;100975.88;5043088;28;20049;-69
2022/11/06 08:08:09;;;;;;;18.60;3.95;;;;;;;9.37;100.00;100977.56;5038860;28;20503;-69
2022/11/06 08:10:39;;;;;;;16.05;3.80;;;;;;;9.41;100.00;100984.63;5045808;28;20064;-67
2022/11/06 08:13:07;;;;;;;17.88;3.72;;;;;;;9.41;100.00;100976.72;5043343;28;20485;-68
2022/11/06 08:15:33;;;;;;;16.15;3.70;;;;;;;9.49;100.00;100981.19;5045526;28;20025;-72
2022/11/06 08:17:59;;;;;;;14.73;3.55;;;;;;;9.57;100.00;100979.53;5044449;28;20107;-69
2022/11/06 08:20:24;;;;;;;16.02;3.53;;;;;;;9.62;100.00;100972.53;5043985;28;20049;-69
2022/11/06 08:22:49;;;;;;;16.58;3.60;;;;;;;9.62;100.00;100969.91;5045259;28;20107;-72
2022/11/06 08:25:15;;;;;;;14.50;3.58;;;;;;;9.65;100.00;100959.38;5042875;28;20033;-69
2022/11/06 08:27:40;;;;;;;15.27;3.50;;;;;;;9.69;100.00;100960.31;5045988;28;20020;-69
2022/11/06 08:30:06;;;;;;;14.45;3.58;;;;;;;9.69;100.00;100950.63;5043326;28;20120;-70
2022/11/06 08:32:31;;;;;;;14.73;3.45;;;;;;;9.74;100.00;100967.41;5044928;28;20068;-70
2022/11/06 08:34:56;;;;;;;14.10;3.30;;;;;;;9.85;100.00;100956.06;5044016;28;20055;-69
2022/11/06 08:37:22;;;;;;;14.27;3.50;;;;;;;9.93;100.00;100954.34;5043834;28;20037;-71
2022/11/06 08:39:47;;;;;;;16.23;3.55;;;;;;;10.06;100.00;100953.59;5045106;28;20460;-68
2022/11/06 08:42:12;;;;;;;14.32;3.30;;;;;;;10.12;100.00;100948.38;5041731;28;20026;-68
2022/11/06 08:44:38;;;;;;;13.77;3.38;;;;;;;10.19;100.00;100949.28;5045880;28;20449;-70
2022/11/06 08:47:04;;;;;;;15.82;3.60;;;;;;;10.23;100.00;100944.91;5042946;28;20542;-68
2022/11/06 08:49:29;;;;;;;15.45;3.40;;;;;;;10.25;100.00;100938.78;5044312;28;20534;-70
2022/11/06 08:51:54;;;;;;;13.43;3.50;;;;;;;10.28;100.00;100933.50;5044212;28;20023;-67
2022/11/06 08:54:20;;;;;;;13.32;3.20;;;;;;;10.37;100.00;100938.00;5042949;28;20049;-67
2022/11/06 08:56:45;;;;;;;12.27;3.22;;;;;;;10.52;100.00;100926.63;5045605;28;20029;-65
2022/11/06 08:59:11;;;;;;;17.15;3.35;;;;;;;10.69;100.00;100928.47;5042057;28;20022;-65
2022/11/06 09:01:36;;;;;;;15.45;3.30;;;;;;;10.78;100.00;100934.72;5045264;28;20029;-65
2022/11/06 09:04:02;;;;;;;13.27;3.30;;;;;;;10.79;100.00;100920.63;5043373;28;20036;-65
2022/11/06 09:06:27;;;;;;;17.08;3.40;;;;;;;10.77;100.00;100927.66;5043507;28;20060;-65
2022/11/06 09:08:52;;;;;;;14.85;3.25;;;;;;;10.76;100.00;100922.34;5044018;28;20037;-65
2022/11/06 09:11:18;;;;;;;12.85;3.17;;;;;;;10.72;100.00;100908.25;5040928;28;20499;-63
2022/11/06 09:13:43;;;;;;;15.13;3.13;;;;;;;10.69;100.00;100896.75;5044553;28;20057;-63
2022/11/06 09:16:08;;;;;;;12.85;3.03;;;;;;;10.74;100.00;100901.19;5045339;28;20100;-74
2022/11/06 09:18:34;;;;;;;14.55;3.13;;;;;;;10.82;100.00;100894.19;5047649;28;20025;-74
2022/11/06 09:20:59;;;;;;;9.77;2.95;;;;;;;10.91;100.00;100895.97;5045451;28;20026;-72
2022/11/06 09:23:25;;;;;;;15.85;3.28;;;;;;;10.93;100.00;100890.69;5046258;28;20028;-69
2022/11/06 09:25:50;;;;;;;13.32;3.30;;;;;;;11.03;100.00;100884.56;5049618;28;20035;-75
2022/11/06 09:28:15;;;;;;;13.98;3.25;;;;;;;11.10;100.00;100873.13;5044403;28;20037;-72
2022/11/06 09:30:41;;;;;;;13.38;2.95;;;;;;;11.36;100.00;100874.94;5045303;28;20047;-73
2022/11/06 09:33:06;;;;;;;13.35;3.17;;;;;;;11.54;100.00;100873.19;5044321;28;20056;-70
2022/11/06 09:35:33;;;;;;;11.98;3.20;;;;;;;11.63;100.00;100865.25;5040510;28;20041;-78
2022/11/06 09:38:06;;;;;;;11.23;2.95;;;;;;;11.58;100.00;100862.63;5045635;28;20030;-76
2022/11/06 09:40:39;;;;;;;13.18;2.90;;;;;;;11.61;100.00;100874.97;5045592;28;20595;-81
2022/11/06 09:43:18;;;;;;;14.85;2.88;;;;;;;11.60;100.00;100871.41;5042513;28;20053;-63
2022/11/06 09:45:47;;;;;;;11.93;3.05;;;;;;;11.59;100.00;100863.47;5043693;28;20078;-63
2022/11/06 09:48:20;;;;;;;18.02;3.20;;;;;;;11.69;100.00;100871.44;5043586;28;20032;-63
2022/11/06 09:51:02;;;;;;;13.85;3.10;;;;;;;11.83;100.00;100862.63;5045750;28;20108;-64
2022/11/06 09:53:39;;;;;;;14.95;2.90;;;;;;;11.98;100.00;100861.75;5043464;28;20040;-63
2022/11/06 09:56:07;;;;;;;14.88;2.90;;;;;;;11.75;100.00;100861.72;5045731;28;20028;-62
2022/11/06 09:58:37;;;;;;;14.35;3.28;;;;;;;11.64;100.00;100854.66;5043992;28;20113;-62
2022/11/06 10:01:12;;;;;;;14.48;2.90;;;;;;;11.60;100.00;100866.13;5047643;28;20029;-63
2022/11/06 10:04:02;;;;;;;16.40;3.53;;;;;;;11.66;100.00;100865.25;5040486;28;20056;-63
2022/11/06 10:06:28;;;;;;;11.00;2.80;;;;;;;11.81;100.00;100874.94;5041301;28;20143;-63
2022/11/06 10:08:58;;;;;;;11.95;2.83;;;;;;;12.19;100.00;100864.38;5045637;28;20055;-63
2022/11/06 10:11:23;;;;;;;11.52;2.78;;;;;;;12.77;100.00;100854.47;5042225;28;20033;-64
2022/11/06 10:14:20;;;;;;;13.32;2.95;;;;;;;12.81;100.00;100860.63;5042545;28;20021;-62
2022/11/06 10:16:51;;;;;;;11.75;2.70;;;;;;;12.80;100.00;100851.78;5045817;28;20088;-64
2022/11/06 10:19:25;;;;;;;14.00;2.80;;;;;;;12.93;100.00;100862.34;5042714;28;20036;-64
2022/11/06 10:22:10;;;;;;;14.50;2.92;;;;;;;12.59;100.00;100854.53;5045470;28;20112;-65
2022/11/06 10:24:54;;;;;;;14.25;2.70;;;;;;;12.08;100.00;100842.28;5043950;28;20043;-64
2022/11/06 10:27:32;;;;;;;13.05;2.92;;;;;;;11.94;100.00;100839.69;5040833;28;20119;-64
2022/11/06 10:30:12;;;;;;;14.65;2.70;;;;;;;11.85;100.00;100840.53;5042306;28;20041;-64
2022/11/06 10:32:46;;;;;;;13.82;2.90;;;;;;;11.97;100.00;100842.31;5037183;28;20022;-64
2022/11/06 10:35:36;;;;;;;11.90;2.90;;;;;;;11.84;100.00;100856.44;5036269;28;20035;-63
2022/11/06 10:38:12;;;;;;;13.73;2.90;;;;;;;11.80;100.00;100839.66;5043463;28;20025;-63
2022/11/06 10:40:43;;;;;;;12.15;2.70;;;;;;;11.78;100.00;100822.00;5043414;28;20041;-64
2022/11/06 10:43:40;;;;;;;14.02;2.72;;;;;;;12.24;100.00;100834.31;5034128;28;20025;-64
2022/11/06 10:46:24;;;;;;;10.57;2.83;;;;;;;12.38;100.00;100811.31;5038579;28;20038;-64
2022/11/06 10:48:58;;;;;;;15.02;3.10;;;;;;;12.62;100.00;100809.44;5042769;28;20075;-64
2022/11/06 10:51:59;;;;;;;15.20;3.00;;;;;;;12.71;100.00;100809.38;5039350;28;20344;-65
2022/11/06 10:54:34;;;;;;;15.18;3.13;;;;;;;12.54;100.00;100786.50;5039032;28;20108;-64
2022/11/06 10:57:24;;;;;;;14.82;3.00;;;;;;;12.91;100.00;100777.44;5045110;28;20056;-64
2022/11/06 10:59:49;;;;;;;12.23;2.78;;;;;;;13.43;100.00;100768.25;5043868;28;20057;-64
2022/11/06 11:02:30;;;;;;;15.23;2.90;;;;;;;13.72;100.00;100788.38;5043846;28;20411;-65
2022/11/06 11:04:55;;;;;;;14.32;2.95;;;;;;;13.45;100.00;100766.44;5047979;28;20052;-66
2022/11/06 11:07:22;;;;;;;11.60;2.65;;;;;;;13.24;100.00;100768.38;5047949;28;20083;-67
2022/11/06 11:09:49;;;;;;;13.30;3.00;;;;;;;13.46;100.00;100764.69;5048713;28;20040;-67
2022/11/06 11:12:24;;;;;;;14.82;2.80;;;;;;;13.25;100.00;100748.00;5047873;28;20033;-67
2022/11/06 11:15:09;;;;;;;12.35;2.80;;;;;;;13.08;100.00;100756.13;5039369;28;20347;-67
2022/11/06 11:17:35;;;;;;;13.75;3.00;;;;;;;12.94;100.00;100760.63;5044357;28;20053;-67
2022/11/06 11:20:01;;;;;;;14.63;2.97;;;;;;;12.85;100.00;100767.75;5046475;28;20155;-67
2022/11/06 11:22:26;;;;;;;15.13;3.03;;;;;;;12.70;100.00;100765.22;5044848;28;20036;-66
2022/11/06 11:25:06;;;;;;;13.48;2.83;;;;;;;12.51;100.00;100756.47;5047489;28;20104;-67
2022/11/06 11:27:37;;;;;;;12.65;2.83;;;;;;;12.38;100.00;100747.69;5043140;28;20034;-67
2022/11/06 11:30:18;;;;;;;12.65;2.90;;;;;;;12.41;100.00;100749.41;5045460;28;20063;-66
2022/11/06 11:32:43;;;;;;;12.98;2.80;;;;;;;12.46;100.00;100731.75;5046780;28;20032;-71
2022/11/06 11:35:10;;;;;;;15.23;2.95;;;;;;;12.45;100.00;100744.13;5044963;28;20043;-71
2022/11/06 11:37:35;;;;;;;14.00;2.90;;;;;;;12.32;100.00;100729.13;5045271;28;20029;-71